AUR1362 EGJB-EGJJ

Flight info

Callsign AUR1362
Flight time 0h 12m
Altitude 2000
Route JSY
Aircraft BN2P/L-SFG/C

Departure

Time 2026-05-05 18:38
Airport Guernsey Airport (EGJB)

Arrival

Time 2026-05-05 18:51
Airport Jersey Airport (EGJJ)
Time Latitude Longitude Altitude Speed Heading
2026-05-05 18:34 49.43334 -2.59243 329 ft 0 kts 349°
2026-05-05 18:37 49.43358 -2.59236 328 ft 12 kts 24°
2026-05-05 18:37 49.43500 -2.59209 332 ft 21 kts 339°
2026-05-05 18:37 49.43520 -2.59364 330 ft 28 kts 267°
2026-05-05 18:38 49.43501 -2.60052 316 ft 95 kts 268°
2026-05-05 18:38 49.43473 -2.61218 405 ft 120 kts 268°
2026-05-05 18:38 49.43431 -2.62536 645 ft 125 kts 271°
2026-05-05 18:38 49.43310 -2.63890 960 ft 132 kts 267°
2026-05-05 18:39 49.43157 -2.65309 1270 ft 139 kts 261°
2026-05-05 18:39 49.42462 -2.66400 1503 ft 157 kts 199°
2026-05-05 18:39 49.41426 -2.66104 1760 ft 156 kts 140°
2026-05-05 18:39 49.40590 -2.65017 1904 ft 165 kts 134°
2026-05-05 18:40 49.39678 -2.63851 1895 ft 176 kts 140°
2026-05-05 18:40 49.38613 -2.62892 1894 ft 182 kts 147°
2026-05-05 18:40 49.37498 -2.61926 1894 ft 185 kts 147°
2026-05-05 18:40 49.36332 -2.61081 1894 ft 187 kts 160°
2026-05-05 18:41 49.35082 -2.60498 1894 ft 188 kts 161°
2026-05-05 18:41 49.33828 -2.59910 1894 ft 188 kts 160°
2026-05-05 18:41 49.32825 -2.58740 1879 ft 181 kts 121°
2026-05-05 18:41 49.32399 -2.57000 1878 ft 173 kts 94°
2026-05-05 18:42 49.32196 -2.55179 1879 ft 173 kts 94°
2026-05-05 18:42 49.31994 -2.53363 1881 ft 173 kts 93°
2026-05-05 18:42 49.31796 -2.51563 1881 ft 173 kts 94°
2026-05-05 18:42 49.31608 -2.49749 1881 ft 172 kts 93°
2026-05-05 18:43 49.31422 -2.47935 1880 ft 172 kts 93°
2026-05-05 18:43 49.31234 -2.46124 1881 ft 172 kts 93°
2026-05-05 18:43 49.31044 -2.44319 1880 ft 171 kts 93°
2026-05-05 18:43 49.30846 -2.42523 1879 ft 171 kts 94°
2026-05-05 18:44 49.30659 -2.40726 1879 ft 170 kts 93°
2026-05-05 18:44 49.30468 -2.38924 1879 ft 171 kts 94°
2026-05-05 18:44 49.30286 -2.37140 1880 ft 172 kts 93°
2026-05-05 18:44 49.30090 -2.35333 1877 ft 171 kts 93°
2026-05-05 18:45 49.29895 -2.33532 1879 ft 171 kts 93°
2026-05-05 18:45 49.29699 -2.31739 1880 ft 170 kts 93°
2026-05-05 18:45 49.29501 -2.29952 1879 ft 171 kts 93°
2026-05-05 18:45 49.29302 -2.28153 1879 ft 171 kts 93°
2026-05-05 18:46 49.29104 -2.26373 1878 ft 172 kts 93°
2026-05-05 18:46 49.28904 -2.24564 1877 ft 172 kts 93°
2026-05-05 18:46 49.28708 -2.22754 1876 ft 172 kts 93°
2026-05-05 18:46 49.28516 -2.20952 1888 ft 171 kts 93°
2026-05-05 18:47 49.28337 -2.19150 1884 ft 171 kts 93°
2026-05-05 18:47 49.28215 -2.17963 1884 ft 170 kts 93°
2026-05-05 18:47 49.28026 -2.16169 1883 ft 170 kts 93°
2026-05-05 18:47 49.27781 -2.13802 1880 ft 169 kts 93°
2026-05-05 18:48 49.27479 -2.12126 1687 ft 162 kts 118°
2026-05-05 18:48 49.26885 -2.11422 1546 ft 163 kts 156°
2026-05-05 18:48 49.25776 -2.11318 1357 ft 158 kts 181°
2026-05-05 18:48 49.24687 -2.11365 1182 ft 156 kts 182°
2026-05-05 18:49 49.23612 -2.11413 1092 ft 152 kts 186°
2026-05-05 18:49 49.22625 -2.11871 1174 ft 150 kts 217°
2026-05-05 18:49 49.21906 -2.12886 1050 ft 136 kts 235°
2026-05-05 18:49 49.21334 -2.14053 977 ft 135 kts 248°
2026-05-05 18:50 49.21139 -2.15435 760 ft 132 kts 265°
2026-05-05 18:50 49.21023 -2.16786 541 ft 124 kts 268°
2026-05-05 18:50 49.20926 -2.18014 361 ft 109 kts 264°
2026-05-05 18:50 49.20837 -2.19084 283 ft 94 kts 263°
2026-05-05 18:51 49.20763 -2.19990 277 ft 69 kts 263°
2026-05-05 18:51 49.20726 -2.20434 277 ft 29 kts 262°
2026-05-05 18:51 49.20689 -2.20683 276 ft 19 kts 220°
2026-05-05 18:51 49.20625 -2.20616 277 ft 17 kts 90°
2026-05-05 18:52 49.20593 -2.20374 277 ft 25 kts 107°
2026-05-05 18:52 49.20546 -2.20134 277 ft 22 kts 106°
2026-05-05 18:52 49.20530 -2.19934 277 ft 17 kts 54°
2026-05-05 18:52 49.20580 -2.19918 277 ft 11 kts 31°
2026-05-05 18:53 49.20563 -2.19861 278 ft 5 kts 177°
2026-05-05 18:53 49.20553 -2.19860 278 ft 0 kts 175°